Time;durP1;ratioP1;P1;durP2;ratioP2;P2;SDS_P1;SDS_P2;PMS_P1;PMS_P2;Temp;Humidity;BMP_temperature;BMP_pressure;BME280_temperature;BME280_humidity;BME280_pressure;Samples;Min_cycle;Max_cycle;Signal;HPM_P1;HPM_P2
2021/04/12 00:02:24;;;;;;;3.60;2.90;;;5.80;99.90;;;;;;5048682;28;20421;-67
2021/04/12 00:04:57;;;;;;;3.73;3.00;;;5.70;99.90;;;;;;5050269;28;20425;-66
2021/04/12 00:07:37;;;;;;;3.87;3.23;;;5.60;99.90;;;;;;5050569;28;20417;-65
2021/04/12 00:10:27;;;;;;;4.67;3.83;;;5.60;99.90;;;;;;5049954;28;20522;-65
2021/04/12 00:13:03;;;;;;;3.90;3.40;;;5.70;99.90;;;;;;5050585;28;20436;-64
2021/04/12 00:16:02;;;;;;;4.97;4.13;;;5.70;99.90;;;;;;5037393;28;20891;-66
2021/04/12 00:18:42;;;;;;;4.07;3.73;;;5.80;99.90;;;;;;5049985;28;20414;-68
2021/04/12 00:21:19;;;;;;;3.60;3.07;;;5.80;99.90;;;;;;5050168;28;20425;-66
2021/04/12 00:23:46;;;;;;;3.80;3.50;;;5.70;99.90;;;;;;5050372;28;20413;-66
2021/04/12 00:26:27;;;;;;;4.47;3.70;;;5.80;99.90;;;;;;5049957;28;20931;-68
2021/04/12 00:29:32;;;;;;;4.03;3.63;;;5.70;99.90;;;;;;5050027;28;20484;-68
2021/04/12 00:32:11;;;;;;;7.73;3.40;;;5.60;99.90;;;;;;4981663;28;20959;-66
2021/04/12 00:34:47;;;;;;;4.63;4.00;;;5.60;99.90;;;;;;5030440;28;20414;-66
2021/04/12 00:37:37;;;;;;;4.27;3.87;;;5.50;99.90;;;;;;5046223;28;20468;-66
2021/04/12 00:40:18;;;;;;;5.30;3.60;;;5.40;99.90;;;;;;5050068;28;20412;-68
2021/04/12 00:43:14;;;;;;;4.87;3.67;;;5.40;99.90;;;;;;5050205;28;20766;-65
2021/04/12 00:45:56;;;;;;;5.00;3.90;;;5.50;99.90;;;;;;5037549;28;20402;-67
2021/04/12 00:48:51;;;;;;;5.00;4.10;;;5.60;99.90;;;;;;5040311;28;20493;-68
2021/04/12 00:51:25;;;;;;;4.00;3.60;;;5.70;99.90;;;;;;5049994;28;20915;-68
2021/04/12 00:54:33;;;;;;;4.60;3.30;;;5.60;99.90;;;;;;5049877;28;20405;-66
2021/04/12 00:57:29;;;;;;;3.73;2.70;;;5.60;99.90;;;;;;5054151;28;20401;-67
2021/04/12 01:00:11;;;;;;;5.77;3.03;;;5.40;99.90;;;;;;5033000;28;20453;-67
2021/04/12 01:02:51;;;;;;;2.73;2.47;;;5.40;99.90;;;;;;5033835;28;20776;-65
2021/04/12 01:05:39;;;;;;;4.00;3.13;;;5.40;99.90;;;;;;5047028;28;20508;-68
2021/04/12 01:08:29;;;;;;;3.60;2.73;;;5.40;99.90;;;;;;5054176;28;20453;-66
2021/04/12 01:11:22;;;;;;;4.00;3.60;;;5.30;99.90;;;;;;5049486;28;20410;-66
2021/04/12 01:14:06;;;;;;;4.03;3.63;;;5.30;99.90;;;;;;5043298;28;20766;-66
2021/04/12 01:16:46;;;;;;;3.80;3.40;;;5.40;99.90;;;;;;5053203;28;20412;-68
2021/04/12 01:19:33;;;;;;;3.70;3.40;;;5.30;99.90;;;;;;5053266;28;20504;-67
2021/04/12 01:22:14;;;;;;;5.87;4.43;;;5.30;99.90;;;;;;5051314;28;20417;-67
2021/04/12 01:24:42;;;;;;;4.47;4.07;;;5.20;99.90;;;;;;5036976;28;20923;-66
2021/04/12 01:27:42;;;;;;;5.00;4.33;;;5.20;99.90;;;;;;5053066;28;20422;-66
2021/04/12 01:30:31;;;;;;;4.50;4.10;;;5.20;99.90;;;;;;5042406;28;20418;-67
2021/04/12 01:33:06;;;;;;;5.40;4.90;;;5.10;99.90;;;;;;5041704;28;20422;-67
2021/04/12 01:35:53;;;;;;;6.13;5.20;;;5.10;99.90;;;;;;5033317;28;20458;-65
2021/04/12 01:38:29;;;;;;;7.13;5.60;;;5.00;99.90;;;;;;5036208;28;20448;-67
2021/04/12 01:41:11;;;;;;;5.87;5.37;;;5.00;99.90;;;;;;5053087;28;20470;-66
2021/04/12 01:43:45;;;;;;;6.43;5.83;;;5.10;99.90;;;;;;5042433;28;20418;-66
2021/04/12 01:46:21;;;;;;;6.57;5.87;;;5.10;99.90;;;;;;5032850;28;20437;-66
2021/04/12 01:48:59;;;;;;;7.00;6.30;;;5.10;99.90;;;;;;5032839;28;20456;-67
2021/04/12 01:51:39;;;;;;;8.47;6.73;;;5.10;99.90;;;;;;5052198;28;20417;-66
2021/04/12 01:54:33;;;;;;;8.57;7.13;;;5.20;99.90;;;;;;5052724;28;20417;-67
2021/04/12 01:57:22;;;;;;;7.07;6.37;;;5.20;99.90;;;;;;5053110;28;20509;-66
2021/04/12 02:00:21;;;;;;;6.60;5.90;;;5.20;99.90;;;;;;5046367;28;20407;-66
2021/04/12 02:02:52;;;;;;;6.77;6.07;;;5.10;99.90;;;;;;5032707;28;20420;-66
2021/04/12 02:06:02;;;;;;;6.77;6.07;;;5.10;99.90;;;;;;5032586;28;20434;-67
2021/04/12 02:08:45;;;;;;;6.60;5.97;;;5.00;99.90;;;;;;5053041;28;20556;-66
2021/04/12 02:11:34;;;;;;;5.17;4.67;;;5.00;99.90;;;;;;5052466;28;20410;-67
2021/04/12 02:14:17;;;;;;;6.00;5.40;;;4.90;99.90;;;;;;5034583;28;20421;-66
2021/04/12 02:16:46;;;;;;;9.07;5.40;;;4.90;99.90;;;;;;5052224;28;20433;-65
2021/04/12 02:19:23;;;;;;;5.40;4.90;;;5.10;99.90;;;;;;5052277;28;20468;-67
2021/04/12 02:22:26;;;;;;;6.27;5.00;;;5.20;99.90;;;;;;5052017;28;20409;-67
2021/04/12 02:24:59;;;;;;;5.90;5.33;;;5.10;99.90;;;;;;5029665;28;20501;-66
2021/04/12 02:27:51;;;;;;;5.87;5.27;;;5.20;99.90;;;;;;5032080;28;20836;-67
2021/04/12 02:30:29;;;;;;;6.37;5.70;;;5.30;99.90;;;;;;5032416;28;20411;-67
2021/04/12 02:33:04;;;;;;;6.10;5.50;;;5.30;99.90;;;;;;5031960;28;20416;-68
2021/04/12 02:35:58;;;;;;;6.50;5.37;;;5.40;99.90;;;;;;5032115;28;20417;-66
2021/04/12 02:39:02;;;;;;;7.87;5.33;;;5.50;99.90;;;;;;5031937;28;20912;-66
2021/04/12 02:42:05;;;;;;;6.57;5.73;;;5.50;99.90;;;;;;5032047;28;20410;-67
2021/04/12 02:44:45;;;;;;;6.97;5.77;;;5.60;99.90;;;;;;5032297;28;20410;-67
2021/04/12 02:47:29;;;;;;;6.23;5.47;;;5.70;99.90;;;;;;5032006;28;20489;-66
2021/04/12 02:50:26;;;;;;;7.90;6.20;;;5.70;99.90;;;;;;5031634;28;20419;-66
2021/04/12 02:52:58;;;;;;;6.37;5.27;;;5.70;99.90;;;;;;5031581;28;20990;-67
2021/04/12 02:56:10;;;;;;;5.80;5.17;;;5.70;99.90;;;;;;5031592;28;20505;-65
2021/04/12 02:59:11;;;;;;;6.10;5.50;;;5.70;99.90;;;;;;5031743;28;20464;-66
2021/04/12 03:01:46;;;;;;;6.40;5.60;;;5.70;99.90;;;;;;5001539;28;20519;-65
2021/04/12 03:04:41;;;;;;;7.07;6.40;;;5.70;99.90;;;;;;5051135;28;20429;-68
2021/04/12 03:07:39;;;;;;;6.03;5.43;;;5.70;99.90;;;;;;5030432;28;20418;-67
2021/04/12 03:10:27;;;;;;;6.97;5.17;;;5.70;99.90;;;;;;5050319;28;20493;-66
2021/04/12 03:12:59;;;;;;;5.97;5.37;;;5.70;99.90;;;;;;5051454;28;20414;-67
2021/04/12 03:15:53;;;;;;;6.50;5.73;;;5.60;99.90;;;;;;5051238;28;20405;-67
2021/04/12 03:18:56;;;;;;;7.30;6.00;;;5.50;99.90;;;;;;5029918;28;20458;-67
2021/04/12 03:21:55;;;;;;;6.43;5.83;;;5.50;99.90;;;;;;5031391;28;20776;-66
2021/04/12 03:24:20;;;;;;;7.03;5.90;;;5.50;99.90;;;;;;5031135;28;20472;-66
2021/04/12 03:27:11;;;;;;;8.50;6.33;;;5.60;99.90;;;;;;5013122;28;20815;-66
2021/04/12 03:30:00;;;;;;;8.53;7.37;;;5.60;99.90;;;;;;5031266;28;20602;-66
2021/04/12 03:32:40;;;;;;;10.83;9.13;;;5.60;99.90;;;;;;5030307;28;20760;-65
2021/04/12 03:35:36;;;;;;;9.57;8.57;;;5.60;99.90;;;;;;5030910;28;20414;-66
2021/04/12 03:38:21;;;;;;;9.83;8.83;;;5.50;99.90;;;;;;5030830;28;20414;-65
2021/04/12 03:41:18;;;;;;;12.47;10.53;;;5.30;99.90;;;;;;5030975;28;20410;-67
2021/04/12 03:44:11;;;;;;;14.27;11.20;;;5.20;99.90;;;;;;5031101;28;20487;-68
2021/04/12 03:47:00;;;;;;;11.33;10.13;;;5.30;99.90;;;;;;5031050;28;20505;-67
2021/04/12 03:49:31;;;;;;;12.00;10.67;;;5.20;99.90;;;;;;5030913;28;20461;-67
2021/04/12 03:52:15;;;;;;;11.07;9.83;;;5.30;99.90;;;;;;5030762;28;20421;-66
2021/04/12 03:55:09;;;;;;;13.70;11.07;;;5.30;99.90;;;;;;5050507;28;20437;-66
2021/04/12 03:57:56;;;;;;;12.00;10.70;;;5.30;99.90;;;;;;5050561;28;20484;-68
2021/04/12 04:00:33;;;;;;;12.10;10.87;;;5.40;99.90;;;;;;5050367;28;20421;-68
2021/04/12 04:03:36;;;;;;;14.50;12.23;;;5.30;99.90;;;;;;5050436;28;20409;-67
2021/04/12 04:06:19;;;;;;;12.13;10.83;;;5.30;99.90;;;;;;5045083;28;20478;-66
2021/04/12 04:09:22;;;;;;;13.97;11.03;;;5.30;99.90;;;;;;5042817;28;20465;-67
2021/04/12 04:12:12;;;;;;;12.20;10.90;;;5.40;99.90;;;;;;5030595;28;20836;-67
2021/04/12 04:14:56;;;;;;;11.73;9.90;;;5.50;99.90;;;;;;5030740;28;20415;-67
2021/04/12 04:17:32;;;;;;;12.70;10.77;;;5.60;99.90;;;;;;5030260;28;20418;-67
2021/04/12 04:20:34;;;;;;;13.33;10.83;;;5.50;99.90;;;;;;5029675;28;20413;-66
2021/04/12 04:23:42;;;;;;;11.73;9.80;;;5.50;99.90;;;;;;5030421;28;20864;-64
2021/04/12 04:26:32;;;;;;;10.97;9.87;;;5.50;99.90;;;;;;4992104;28;20426;-69
2021/04/12 04:29:22;;;;;;;12.90;9.97;;;5.50;99.90;;;;;;5030413;28;20454;-67
2021/04/12 04:32:04;;;;;;;12.97;11.23;;;5.40;99.90;;;;;;5034154;28;20407;-67
2021/04/12 04:34:35;;;;;;;13.43;11.47;;;5.40;99.90;;;;;;5033966;28;20410;-69
2021/04/12 04:37:22;;;;;;;16.43;11.87;;;5.40;99.90;;;;;;5034139;28;20413;-65
2021/04/12 04:39:53;;;;;;;14.37;12.20;;;5.40;99.90;;;;;;5034092;28;20415;-68
2021/04/12 04:42:25;;;;;;;15.83;13.27;;;5.30;99.90;;;;;;5034143;28;20418;-69
2021/04/12 04:44:56;;;;;;;22.40;11.70;;;5.30;99.90;;;;;;5034017;28;20415;-67
2021/04/12 04:47:55;;;;;;;17.23;13.03;;;5.20;99.90;;;;;;5033791;28;20501;-68
2021/04/12 04:51:02;;;;;;;18.80;13.63;;;5.10;99.90;;;;;;5034012;28;20875;-69
2021/04/12 04:54:05;;;;;;;15.90;12.77;;;5.00;99.90;;;;;;4934352;29;20490;-65
2021/04/12 04:56:57;;;;;;;17.10;13.10;;;4.90;99.90;;;;;;5033810;28;20926;-68
2021/04/12 04:59:40;;;;;;;17.57;12.37;;;4.90;99.90;;;;;;5028966;28;20427;-69
2021/04/12 05:02:12;;;;;;;18.90;13.27;;;4.80;99.90;;;;;;5033431;28;20414;-70
2021/04/12 05:05:15;;;;;;;14.83;12.10;;;4.80;99.90;;;;;;5033893;28;20446;-69
2021/04/12 05:08:08;;;;;;;15.37;12.70;;;4.80;99.90;;;;;;5033610;28;20429;-69
2021/04/12 05:10:40;;;;;;;15.80;12.97;;;4.70;99.90;;;;;;5051333;28;20449;-70
2021/04/12 05:13:06;;;;;;;13.73;11.83;;;4.70;99.90;;;;;;5035139;28;20428;-68
2021/04/12 05:16:08;;;;;;;15.10;11.80;;;4.60;99.90;;;;;;5053575;28;20413;-68
2021/04/12 05:18:50;;;;;;;17.07;12.40;;;4.60;99.90;;;;;;5053311;28;20228;-69
2021/04/12 05:21:57;;;;;;;13.47;11.53;;;4.60;99.90;;;;;;5053287;28;20413;-68
2021/04/12 05:24:51;;;;;;;14.93;12.00;;;4.60;99.90;;;;;;5051078;28;20456;-69
2021/04/12 05:27:41;;;;;;;16.53;11.50;;;4.60;99.90;;;;;;5052973;28;20405;-67
2021/04/12 05:30:09;;;;;;;15.80;10.90;;;4.70;99.90;;;;;;5053270;28;20946;-69
2021/04/12 05:33:09;;;;;;;15.33;10.87;;;4.70;99.90;;;;;;5041410;28;20398;-69
2021/04/12 05:35:53;;;;;;;17.00;11.17;;;4.70;99.90;;;;;;5032993;28;20418;-68
2021/04/12 05:38:30;;;;;;;15.57;11.87;;;4.70;99.90;;;;;;5033016;28;20410;-67
2021/04/12 05:41:19;;;;;;;15.47;10.73;;;4.70;99.90;;;;;;5032610;28;20438;-67
2021/04/12 05:44:13;;;;;;;16.13;11.80;;;4.80;99.90;;;;;;5033216;28;20422;-68
2021/04/12 05:46:57;;;;;;;18.10;11.60;;;4.80;99.90;;;;;;5015163;28;20447;-70
2021/04/12 05:49:40;;;;;;;15.03;11.43;;;4.80;99.90;;;;;;5032909;28;20460;-68
2021/04/12 05:52:20;;;;;;;15.00;11.23;;;4.80;99.90;;;;;;5032634;28;20477;-69
2021/04/12 05:54:51;;;;;;;12.53;9.80;;;4.80;99.90;;;;;;5033022;28;20807;-68
2021/04/12 05:57:44;;;;;;;14.10;9.40;;;4.90;99.90;;;;;;5033133;28;20762;-68
2021/04/12 06:00:22;;;;;;;11.70;8.47;;;4.90;99.90;;;;;;5018051;28;20426;-67
2021/04/12 06:03:09;;;;;;;14.13;8.93;;;5.00;99.90;;;;;;5015431;28;20418;-67
2021/04/12 06:05:44;;;;;;;13.57;9.37;;;5.00;99.90;;;;;;5032733;28;20920;-69
2021/04/12 06:08:29;;;;;;;12.20;9.77;;;5.10;99.90;;;;;;5032460;28;20951;-70
2021/04/12 06:11:01;;;;;;;15.97;9.87;;;5.10;99.90;;;;;;5051499;28;20431;-66
2021/04/12 06:13:48;;;;;;;16.03;9.00;;;5.20;99.90;;;;;;5052579;28;20418;-68
2021/04/12 06:16:23;;;;;;;13.67;9.60;;;5.10;99.90;;;;;;5050846;28;20409;-67
2021/04/12 06:19:09;;;;;;;12.90;9.20;;;5.20;99.90;;;;;;5052621;28;20416;-66
2021/04/12 06:22:12;;;;;;;14.63;9.90;;;5.20;99.90;;;;;;5052231;28;20414;-68
2021/04/12 06:24:41;;;;;;;13.53;10.67;;;5.30;99.90;;;;;;5033954;28;20910;-69
2021/04/12 06:27:36;;;;;;;12.53;10.63;;;5.30;99.90;;;;;;5034231;28;20497;-69
2021/04/12 06:30:08;;;;;;;15.97;10.83;;;5.40;99.90;;;;;;5051755;28;20433;-68
2021/04/12 06:33:00;;;;;;;16.30;10.57;;;5.40;99.90;;;;;;5049799;28;20444;-66
2021/04/12 06:35:44;;;;;;;13.90;9.57;;;5.40;99.90;;;;;;5052012;28;20993;-67
2021/04/12 06:38:35;;;;;;;12.77;10.30;;;5.50;99.90;;;;;;5016631;28;20829;-65
2021/04/12 06:41:24;;;;;;;16.43;11.10;;;5.50;99.90;;;;;;5050393;28;20471;-65
2021/04/12 06:43:56;;;;;;;14.03;10.90;;;5.60;99.90;;;;;;5049281;28;20416;-68
2021/04/12 06:46:43;;;;;;;15.90;9.87;;;5.60;99.90;;;;;;5050173;28;20444;-68
2021/04/12 06:49:23;;;;;;;14.57;10.27;;;5.80;99.90;;;;;;5051248;28;20449;-67
2021/04/12 06:52:26;;;;;;;14.47;10.20;;;5.70;99.90;;;;;;5050661;28;20412;-66
2021/04/12 06:55:20;;;;;;;11.00;9.73;;;5.70;99.90;;;;;;5046925;28;20434;-69
2021/04/12 06:58:06;;;;;;;14.93;9.63;;;5.70;99.90;;;;;;5051247;28;20405;-68
2021/04/12 07:00:53;;;;;;;12.40;9.93;;;5.80;99.90;;;;;;5051498;28;20497;-69
2021/04/12 07:03:37;;;;;;;18.60;10.67;;;5.80;99.90;;;;;;5048084;28;20823;-68
2021/04/12 07:06:09;;;;;;;11.77;8.83;;;5.90;99.90;;;;;;5050150;28;20500;-69
2021/04/12 07:09:07;;;;;;;11.33;9.77;;;5.90;99.90;;;;;;5051678;28;20453;-69
2021/04/12 07:11:51;;;;;;;18.13;9.30;;;5.90;99.90;;;;;;5033186;28;21460;-68
2021/04/12 07:14:38;;;;;;;14.93;9.33;;;5.90;99.90;;;;;;5013452;28;20432;-68
2021/04/12 07:17:34;;;;;;;14.57;8.47;;;6.00;99.90;;;;;;5013469;28;20423;-68
2021/04/12 07:20:37;;;;;;;10.40;7.83;;;6.10;99.90;;;;;;5030274;28;20442;-68
2021/04/12 07:23:23;;;;;;;10.03;7.37;;;6.00;99.90;;;;;;5031138;28;20574;-66
2021/04/12 07:26:27;;;;;;;13.10;8.40;;;6.20;99.90;;;;;;5031260;28;20421;-69
2021/04/12 07:28:58;;;;;;;10.73;7.77;;;6.30;99.90;;;;;;5031059;28;20450;-71
2021/04/12 07:31:54;;;;;;;12.73;9.37;;;6.30;99.90;;;;;;5030714;28;20542;-70
2021/04/12 07:34:59;;;;;;;14.07;7.67;;;6.50;99.90;;;;;;5031104;28;20425;-68
2021/04/12 07:38:08;;;;;;;9.17;6.23;;;6.50;99.90;;;;;;5031133;28;20959;-66
2021/04/12 07:41:04;;;;;;;9.83;5.47;;;6.50;99.90;;;;;;5047287;28;20409;-68
2021/04/12 07:43:57;;;;;;;10.10;5.90;;;6.50;99.90;;;;;;5050384;28;20405;-67
2021/04/12 07:46:41;;;;;;;8.60;4.80;;;6.60;99.90;;;;;;5032329;28;20410;-67
2021/04/12 07:49:32;;;;;;;8.47;5.83;;;6.60;99.90;;;;;;5031060;28;20458;-68
2021/04/12 07:52:38;;;;;;;11.37;6.53;;;6.70;99.90;;;;;;5042008;28;20405;-68
2021/04/12 07:55:28;;;;;;;6.30;4.53;;;6.80;99.90;;;;;;5050351;28;20404;-70
2021/04/12 07:58:12;;;;;;;11.67;5.20;;;6.70;99.90;;;;;;5039867;28;20493;-68
2021/04/12 08:01:16;;;;;;;8.47;4.00;;;6.70;99.90;;;;;;5050599;28;20413;-66
2021/04/12 08:04:19;;;;;;;6.87;3.87;;;6.70;99.90;;;;;;5047903;28;20445;-69
2021/04/12 08:07:04;;;;;;;6.67;3.77;;;6.90;99.90;;;;;;5030550;28;20424;-68
2021/04/12 08:10:20;;;;;;;9.93;4.30;;;6.90;99.90;;;;;;5030635;28;20963;-67
2021/04/12 08:13:18;;;;;;;7.63;3.53;;;6.80;99.90;;;;;;5030525;28;20916;-66
2021/04/12 08:16:19;;;;;;;7.13;4.00;;;6.90;99.50;;;;;;5030239;28;20419;-66
2021/04/12 08:19:12;;;;;;;11.30;4.47;;;6.90;99.30;;;;;;5030441;28;20421;-68
2021/04/12 08:22:14;;;;;;;6.07;3.70;;;7.10;99.90;;;;;;5030288;28;20440;-66
2021/04/12 08:24:43;;;;;;;5.73;3.27;;;7.20;98.90;;;;;;5030341;28;20421;-67
2021/04/12 08:27:35;;;;;;;5.73;3.30;;;7.30;95.10;;;;;;5030351;28;20835;-67
2021/04/12 08:30:22;;;;;;;7.13;3.50;;;7.30;94.60;;;;;;5030267;28;20414;-66
2021/04/12 08:33:00;;;;;;;4.67;2.70;;;7.20;94.80;;;;;;5030422;28;20899;-67
2021/04/12 08:35:31;;;;;;;4.50;3.27;;;7.20;94.90;;;;;;5030410;28;20943;-67
2021/04/12 08:38:22;;;;;;;10.40;3.47;;;7.10;95.70;;;;;;5030384;28;20415;-68
2021/04/12 08:41:31;;;;;;;5.17;3.03;;;7.20;98.00;;;;;;5030345;28;20418;-67
2021/04/12 08:44:34;;;;;;;7.00;3.27;;;7.20;96.00;;;;;;5030350;28;20418;-69
2021/04/12 08:47:19;;;;;;;6.17;2.70;;;7.20;94.20;;;;;;5029991;28;20410;-67
2021/04/12 08:50:15;;;;;;;8.10;2.70;;;7.20;93.30;;;;;;5029915;28;20844;-66
2021/04/12 08:53:02;;;;;;;6.80;2.77;;;7.20;96.40;;;;;;5029786;28;20414;-67
2021/04/12 08:56:05;;;;;;;6.60;2.47;;;7.40;93.40;;;;;;5028580;28;20505;-65
2021/04/12 08:58:49;;;;;;;4.83;1.83;;;7.50;93.50;;;;;;5028497;28;20417;-68
2021/04/12 09:01:25;;;;;;;4.50;2.10;;;7.60;86.20;;;;;;5030148;28;20889;-66
2021/04/12 09:04:07;;;;;;;4.20;2.00;;;7.90;89.90;;;;;;5029738;28;20946;-68
2021/04/12 09:06:39;;;;;;;4.27;2.40;;;8.00;88.20;;;;;;5030064;28;20402;-69
2021/04/12 09:09:36;;;;;;;4.53;2.33;;;7.90;84.30;;;;;;5034436;28;20457;-66
2021/04/12 09:12:01;;;;;;;3.83;2.40;;;7.80;89.20;;;;;;5049634;28;20488;-68
2021/04/12 09:14:47;;;;;;;3.77;2.20;;;7.60;90.20;;;;;;5032258;28;20509;-67
2021/04/12 09:17:16;;;;;;;4.20;2.17;;;7.30;89.10;;;;;;5032327;28;20174;-65
2021/04/12 09:20:00;;;;;;;3.77;2.43;;;7.20;89.80;;;;;;5033565;28;20975;-66
2021/04/12 09:22:50;;;;;;;8.40;1.80;;;7.20;91.10;;;;;;5033807;28;20411;-66
2021/04/12 09:25:53;;;;;;;4.90;1.90;;;7.30;87.30;;;;;;5033286;28;20415;-67
2021/04/12 09:28:58;;;;;;;6.97;1.87;;;7.50;91.30;;;;;;5032924;28;20446;-70
2021/04/12 09:31:46;;;;;;;2.10;1.60;;;7.90;90.60;;;;;;5033697;28;20446;-69
2021/04/12 09:34:34;;;;;;;4.20;1.70;;;8.10;85.20;;;;;;5033178;28;20545;-65
2021/04/12 09:37:38;;;;;;;4.03;1.50;;;8.30;80.30;;;;;;5033431;28;20764;-66
2021/04/12 09:40:12;;;;;;;3.77;1.50;;;8.40;80.90;;;;;;5033328;28;20410;-67
2021/04/12 09:43:08;;;;;;;3.30;1.30;;;8.60;76.10;;;;;;5015222;28;20476;-66
2021/04/12 09:46:10;;;;;;;4.30;1.27;;;8.60;71.50;;;;;;5033417;28;20770;-69
2021/04/12 09:49:00;;;;;;;2.30;1.33;;;8.70;70.40;;;;;;5033100;28;20450;-65
2021/04/12 09:51:45;;;;;;;3.13;1.27;;;8.80;61.50;;;;;;5032791;28;20415;-66
2021/04/12 09:54:38;;;;;;;3.60;1.30;;;8.80;65.80;;;;;;5033224;28;20414;-68
2021/04/12 09:57:34;;;;;;;2.73;1.27;;;8.90;65.80;;;;;;5032944;28;20919;-65
2021/04/12 10:00:20;;;;;;;3.00;1.40;;;9.00;63.30;;;;;;5032805;28;20422;-66
2021/04/12 10:03:23;;;;;;;2.90;1.73;;;9.10;68.50;;;;;;5033083;28;20514;-68
2021/04/12 10:06:25;;;;;;;2.00;1.30;;;8.90;65.00;;;;;;5032801;28;20462;-68
2021/04/12 10:09:29;;;;;;;3.30;1.50;;;8.70;64.70;;;;;;5032969;28;20536;-66
2021/04/12 10:12:19;;;;;;;5.70;2.10;;;8.60;68.10;;;;;;5032376;28;20457;-65
2021/04/12 10:15:10;;;;;;;1.60;1.50;;;8.60;73.80;;;;;;5032395;28;20411;-69
2021/04/12 10:17:47;;;;;;;3.20;1.60;;;8.80;68.30;;;;;;4987889;28;20451;-68
2021/04/12 10:20:39;;;;;;;4.07;1.80;;;8.90;68.20;;;;;;5032487;28;20458;-69
2021/04/12 10:23:19;;;;;;;4.03;1.90;;;9.20;68.20;;;;;;5021669;28;20423;-69
2021/04/12 10:26:07;;;;;;;5.07;2.60;;;9.30;61.20;;;;;;5032201;28;20489;-68
2021/04/12 10:28:46;;;;;;;3.03;1.57;;;9.40;67.60;;;;;;5032196;28;20462;-66
2021/04/12 10:31:27;;;;;;;2.33;1.20;;;9.40;67.80;;;;;;5031589;28;20897;-67
2021/04/12 10:34:10;;;;;;;3.97;1.20;;;9.40;69.10;;;;;;5028667;28;20421;-67
2021/04/12 10:36:55;;;;;;;4.50;1.40;;;9.20;61.00;;;;;;5014655;28;21489;-65
2021/04/12 10:40:10;;;;;;;4.90;1.57;;;8.90;62.00;;;;;;5032059;28;20415;-68
2021/04/12 10:42:39;;;;;;;5.43;1.50;;;8.50;62.50;;;;;;4946158;28;20442;-65
2021/04/12 10:45:13;;;;;;;3.53;1.60;;;8.50;67.20;;;;;;5031908;28;20773;-66
2021/04/12 10:47:50;;;;;;;1.33;1.10;;;8.80;73.30;;;;;;5031952;28;20497;-66
2021/04/12 10:50:33;;;;;;;2.50;1.17;;;9.20;71.10;;;;;;5031877;28;20525;-66
2021/04/12 10:53:14;;;;;;;1.80;1.23;;;9.40;64.40;;;;;;5031742;28;20418;-69
2021/04/12 10:55:42;;;;;;;5.03;1.23;;;9.60;59.90;;;;;;5031870;28;20402;-69
2021/04/12 10:58:30;;;;;;;0.80;0.80;;;9.80;56.40;;;;;;5031570;28;20450;-68
2021/04/12 11:01:11;;;;;;;1.67;1.10;;;9.50;52.90;;;;;;5031584;28;20429;-65
2021/04/12 11:03:45;;;;;;;3.33;1.30;;;9.50;56.10;;;;;;5031546;28;20418;-67
2021/04/12 11:06:30;;;;;;;2.70;1.30;;;9.60;56.70;;;;;;5031427;28;20418;-67
2021/04/12 11:09:29;;;;;;;3.63;1.43;;;9.70;58.50;;;;;;5033120;28;20461;-65
2021/04/12 11:12:03;;;;;;;1.90;1.10;;;9.50;55.10;;;;;;5035315;28;20875;-66
2021/04/12 11:14:41;;;;;;;5.10;1.37;;;9.40;58.70;;;;;;5051406;28;20757;-66
2021/04/12 11:17:39;;;;;;;2.37;1.43;;;9.30;59.50;;;;;;5051105;28;20440;-68
2021/04/12 11:20:14;;;;;;;2.30;1.17;;;9.10;58.90;;;;;;5051355;28;20410;-67
2021/04/12 11:22:55;;;;;;;4.37;1.73;;;9.00;58.50;;;;;;5051109;28;20491;-67
2021/04/12 11:25:26;;;;;;;3.10;1.40;;;9.00;61.00;;;;;;5050771;28;20435;-66
2021/04/12 11:28:08;;;;;;;3.30;1.20;;;9.00;62.70;;;;;;5040476;28;20413;-66
2021/04/12 11:30:43;;;;;;;2.77;1.20;;;9.00;64.50;;;;;;5031429;28;20414;-66
2021/04/12 11:33:17;;;;;;;3.83;2.57;;;9.20;67.50;;;;;;5050742;28;20420;-66
2021/04/12 11:35:53;;;;;;;3.10;1.50;;;9.10;63.50;;;;;;5050640;28;20500;-67
2021/04/12 11:38:27;;;;;;;2.30;1.30;;;9.10;65.40;;;;;;5050406;28;20433;-65
2021/04/12 11:41:15;;;;;;;1.83;1.13;;;9.00;63.20;;;;;;5050755;28;20430;-66
2021/04/12 11:43:46;;;;;;;1.60;1.30;;;9.10;65.90;;;;;;5050581;28;20417;-66
2021/04/12 11:46:48;;;;;;;2.07;1.30;;;9.10;58.50;;;;;;5050638;28;20436;-66
2021/04/12 11:49:20;;;;;;;2.87;1.10;;;9.10;59.60;;;;;;5050500;28;20449;-68
2021/04/12 11:52:04;;;;;;;3.20;1.13;;;9.10;61.30;;;;;;5051040;28;20500;-66
2021/04/12 11:54:44;;;;;;;2.03;1.30;;;9.00;61.70;;;;;;5032769;28;20426;-67
2021/04/12 11:57:12;;;;;;;3.37;1.30;;;9.10;65.50;;;;;;5050475;28;20475;-66
2021/04/12 11:59:50;;;;;;;2.30;1.03;;;9.20;63.80;;;;;;5050742;28;20428;-69
2021/04/12 12:02:24;;;;;;;2.73;1.00;;;9.20;63.10;;;;;;5050311;28;20467;-69
2021/04/12 12:04:56;;;;;;;2.30;1.10;;;9.40;61.40;;;;;;5050516;28;20449;-69
2021/04/12 12:07:41;;;;;;;2.87;1.00;;;9.70;64.50;;;;;;5050413;28;20422;-69
2021/04/12 12:10:24;;;;;;;1.47;0.80;;;10.30;57.40;;;;;;5051282;28;20460;-66
2021/04/12 12:13:02;;;;;;;2.00;1.37;;;10.60;57.90;;;;;;5050547;28;20497;-67
2021/04/12 12:15:43;;;;;;;3.17;1.67;;;10.70;56.90;;;;;;5050568;28;20440;-70
2021/04/12 12:18:23;;;;;;;4.10;1.50;;;11.00;57.20;;;;;;5050827;28;20183;-65
2021/04/12 12:21:14;;;;;;;3.23;2.20;;;11.20;54.60;;;;;;5050359;28;20179;-67
2021/04/12 12:23:57;;;;;;;4.93;1.17;;;11.40;55.40;;;;;;5049438;28;20182;-66
2021/04/12 12:26:28;;;;;;;0.73;0.73;;;11.50;52.90;;;;;;5050045;28;20194;-67
2021/04/12 12:29:20;;;;;;;3.03;1.57;;;11.00;51.00;;;;;;5040007;28;20230;-68
2021/04/12 12:32:08;;;;;;;5.03;1.67;;;10.70;53.30;;;;;;5038835;28;20202;-66
2021/04/12 12:35:07;;;;;;;2.00;0.80;;;10.30;53.10;;;;;;5044108;28;20656;-67
2021/04/12 12:37:58;;;;;;;1.30;0.97;;;10.10;56.60;;;;;;5035877;28;20429;-65
2021/04/12 12:40:45;;;;;;;5.13;1.07;;;10.00;55.00;;;;;;5030168;28;20422;-67
2021/04/12 12:43:24;;;;;;;7.50;1.97;;;9.80;54.10;;;;;;5033597;28;20226;-65
2021/04/12 12:45:50;;;;;;;3.73;0.87;;;9.80;54.00;;;;;;5037827;28;20171;-68
2021/04/12 12:48:23;;;;;;;2.83;1.73;;;9.60;49.10;;;;;;5034882;28;20457;-66
2021/04/12 12:50:53;;;;;;;2.13;1.00;;;9.70;51.80;;;;;;5050750;28;20420;-67
2021/04/12 12:53:35;;;;;;;2.70;1.20;;;9.70;51.30;;;;;;5050412;28;20436;-68
2021/04/12 12:56:05;;;;;;;1.30;1.00;;;9.90;53.30;;;;;;5047783;28;20953;-66
2021/04/12 12:58:32;;;;;;;1.67;0.80;;;10.00;52.70;;;;;;5051667;28;20438;-67
2021/04/12 13:01:00;;;;;;;2.33;1.00;;;10.00;52.00;;;;;;5041703;28;20454;-67
2021/04/12 13:03:38;;;;;;;2.97;0.90;;;10.00;51.50;;;;;;5047047;28;20910;-67
2021/04/12 13:06:40;;;;;;;2.57;0.97;;;10.00;51.30;;;;;;5036344;28;20175;-69
2021/04/12 13:09:16;;;;;;;3.33;1.10;;;10.10;52.80;;;;;;4940288;28;20597;-68
2021/04/12 13:11:45;;;;;;;2.70;0.93;;;10.00;52.80;;;;;;5040695;28;20491;-68
2021/04/12 13:14:30;;;;;;;4.67;0.80;;;10.10;52.50;;;;;;5050875;28;20421;-66
2021/04/12 13:16:58;;;;;;;2.67;1.00;;;10.30;54.50;;;;;;5046663;28;20255;-66
2021/04/12 13:19:25;;;;;;;2.13;1.20;;;10.80;57.90;;;;;;5049959;28;20706;-67
2021/04/12 13:21:58;;;;;;;4.03;1.60;;;11.20;55.00;;;;;;5050782;28;20179;-68
2021/04/12 13:24:34;;;;;;;3.00;1.10;;;11.20;55.10;;;;;;5051404;28;20193;-67
2021/04/12 13:27:10;;;;;;;1.77;0.90;;;11.10;54.50;;;;;;5051127;28;20183;-67
2021/04/12 13:29:52;;;;;;;2.40;1.00;;;10.70;53.70;;;;;;5049538;28;20703;-66
2021/04/12 13:32:34;;;;;;;2.33;1.00;;;10.40;56.70;;;;;;5050895;28;20171;-65
2021/04/12 13:35:17;;;;;;;1.83;0.90;;;10.10;55.10;;;;;;5047989;28;20413;-68
2021/04/12 13:38:17;;;;;;;1.20;0.97;;;9.90;57.20;;;;;;5052102;28;20421;-67
2021/04/12 13:40:46;;;;;;;1.20;1.00;;;9.80;57.90;;;;;;5052982;28;20778;-68
2021/04/12 13:43:13;;;;;;;1.33;1.17;;;9.70;57.60;;;;;;5047375;28;20190;-64
2021/04/12 13:45:42;;;;;;;1.53;1.10;;;9.70;58.30;;;;;;5050881;28;20452;-66
2021/04/12 13:48:08;;;;;;;2.00;1.00;;;9.80;57.30;;;;;;5049235;28;20476;-66
2021/04/12 13:50:58;;;;;;;2.10;1.20;;;9.90;60.00;;;;;;5052027;28;20418;-67
2021/04/12 13:53:51;;;;;;;1.60;0.90;;;10.10;60.10;;;;;;5032410;28;20217;-68
2021/04/12 13:56:38;;;;;;;1.40;0.80;;;10.30;57.20;;;;;;5048399;28;20175;-67
2021/04/12 13:59:10;;;;;;;0.90;0.80;;;10.40;58.70;;;;;;5050925;28;20502;-66
2021/04/12 14:01:49;;;;;;;2.10;1.07;;;10.40;56.60;;;;;;5022114;28;20274;-66
2021/04/12 14:04:20;;;;;;;0.70;0.70;;;10.50;57.20;;;;;;5051333;28;20421;-64
2021/04/12 14:06:49;;;;;;;2.20;1.60;;;10.40;54.90;;;;;;5052755;28;20163;-68
2021/04/12 14:09:27;;;;;;;1.87;1.70;;;10.30;57.20;;;;;;5050824;28;20202;-68
2021/04/12 14:11:57;;;;;;;2.90;2.03;;;10.30;51.60;;;;;;5049938;28;20190;-66
2021/04/12 14:14:32;;;;;;;3.27;2.10;;;10.40;56.80;;;;;;5052303;28;20179;-66
2021/04/12 14:17:07;;;;;;;1.20;1.10;;;10.50;54.70;;;;;;5048267;28;20183;-65
2021/04/12 14:19:42;;;;;;;3.70;1.00;;;10.60;54.50;;;;;;5051978;28;20194;-66
2021/04/12 14:22:20;;;;;;;1.83;1.40;;;10.80;53.10;;;;;;5051213;28;20224;-66
2021/04/12 14:24:52;;;;;;;2.03;1.10;;;11.20;53.30;;;;;;5052300;28;20187;-64